createdAt,value
2023-04-18T00:00:38.054Z,23.46
2023-04-18T00:03:06.413Z,23.45
2023-04-18T00:05:36.721Z,23.44
2023-04-18T00:08:05.378Z,23.46
2023-04-18T00:10:33.503Z,23.45
2023-04-18T00:13:01.493Z,23.46
2023-04-18T00:15:30.444Z,23.46
2023-04-18T00:17:58.803Z,23.44
2023-04-18T00:20:27.079Z,23.45
2023-04-18T00:22:56.458Z,23.45
2023-04-18T00:25:24.439Z,23.45
2023-04-18T00:27:52.754Z,23.45
2023-04-18T00:30:21.250Z,23.45
2023-04-18T00:32:49.150Z,23.45
2023-04-18T00:35:17.110Z,23.44
2023-04-18T00:37:45.398Z,23.44
2023-04-18T00:40:15.100Z,23.44
2023-04-18T00:42:43.011Z,23.44
2023-04-18T00:45:11.806Z,23.43
2023-04-18T00:47:40.198Z,23.44
2023-04-18T00:50:09.036Z,23.44
2023-04-18T00:52:36.968Z,23.44
2023-04-18T00:55:05.357Z,23.44
2023-04-18T00:57:35.040Z,23.44
2023-04-18T01:00:04.976Z,23.44
2023-04-18T01:02:33.003Z,23.43
2023-04-18T01:05:00.964Z,23.40
2023-04-18T01:07:30.658Z,23.42
2023-04-18T01:09:58.753Z,23.42
2023-04-18T01:12:26.772Z,23.43
2023-04-18T01:14:55.997Z,23.43
2023-04-18T01:17:24.350Z,23.43
2023-04-18T01:19:52.290Z,23.42
2023-04-18T01:22:20.169Z,23.43
2023-04-18T01:24:49.460Z,23.42
2023-04-18T01:27:17.838Z,23.42
2023-04-18T01:29:45.696Z,23.43
2023-04-18T01:32:13.636Z,23.43
2023-04-18T01:34:42.081Z,23.42
2023-04-18T01:37:09.983Z,23.42
2023-04-18T01:39:37.843Z,23.40
2023-04-18T01:42:07.189Z,23.42
2023-04-18T01:44:35.115Z,23.42
2023-04-18T01:47:03.484Z,23.42
2023-04-18T01:49:31.450Z,23.42
2023-04-18T01:51:59.357Z,23.42
2023-04-18T01:54:27.296Z,23.42
2023-04-18T01:56:55.491Z,23.43
2023-04-18T01:59:24.766Z,23.43
2023-04-18T02:01:52.720Z,23.39
2023-04-18T02:04:20.767Z,23.41
2023-04-18T02:06:48.989Z,23.41
2023-04-18T02:09:16.877Z,23.41
2023-04-18T02:11:44.773Z,23.41
2023-04-18T02:14:12.965Z,23.39
2023-04-18T02:16:42.706Z,23.40
2023-04-18T02:19:10.604Z,23.40
2023-04-18T02:21:38.491Z,23.40
2023-04-18T02:24:06.489Z,23.39
2023-04-18T02:26:34.689Z,23.40
2023-04-18T02:29:02.704Z,23.35
2023-04-18T02:31:32.077Z,23.40
2023-04-18T02:34:01.843Z,23.40
2023-04-18T02:36:30.935Z,23.37
2023-04-18T02:38:58.939Z,23.39
2023-04-18T02:41:26.887Z,23.39
2023-04-18T02:43:55.929Z,23.39
2023-04-18T02:46:24.164Z,23.41
2023-04-18T02:48:52.130Z,23.40
2023-04-18T02:51:21.387Z,23.37
2023-04-18T02:53:49.423Z,23.38
2023-04-18T02:56:18.119Z,23.38
2023-04-18T02:58:45.995Z,23.38
2023-04-18T03:01:13.918Z,23.39
2023-04-18T03:03:41.873Z,23.39
2023-04-18T03:06:10.037Z,23.34
2023-04-18T03:08:39.361Z,23.35
2023-04-18T03:11:07.271Z,23.37
2023-04-18T03:13:35.368Z,23.37
2023-04-18T03:16:03.642Z,23.38
2023-04-18T03:18:31.600Z,23.38
2023-04-18T03:20:59.521Z,23.37
2023-04-18T03:23:27.388Z,23.38
2023-04-18T03:25:56.934Z,23.37
2023-04-18T03:28:24.814Z,23.37
2023-04-18T03:30:52.843Z,23.37
2023-04-18T03:33:20.796Z,23.37
2023-04-18T03:35:48.991Z,23.25
2023-04-18T03:38:16.899Z,23.38
2023-04-18T03:40:44.897Z,23.36
2023-04-18T03:43:14.242Z,23.37
2023-04-18T03:45:42.164Z,23.36
2023-04-18T03:48:10.085Z,23.36
2023-04-18T03:50:37.990Z,23.36
2023-04-18T03:53:05.968Z,23.36
2023-04-18T03:55:34.247Z,23.36
2023-04-18T03:58:02.403Z,23.36
2023-04-18T04:00:31.875Z,23.36
2023-04-18T04:02:59.929Z,23.37
2023-04-18T04:05:28.294Z,23.37
2023-04-18T04:07:56.539Z,23.38
2023-04-18T04:10:24.564Z,23.39
2023-04-18T04:12:52.485Z,23.38
2023-04-18T04:15:20.458Z,23.40
2023-04-18T04:17:50.154Z,23.41
2023-04-18T04:20:23.961Z,23.41
2023-04-18T04:22:52.518Z,23.42
2023-04-18T04:25:20.454Z,23.41
2023-04-18T04:27:49.640Z,23.42
2023-04-18T04:30:17.632Z,23.42
2023-04-18T04:32:45.599Z,23.43
2023-04-18T04:35:15.210Z,23.43
2023-04-18T04:37:44.121Z,23.43
2023-04-18T04:40:12.575Z,23.43
2023-04-18T04:42:41.118Z,23.43
2023-04-18T04:45:12.513Z,23.43
2023-04-18T04:47:41.028Z,23.44
2023-04-18T04:50:14.730Z,23.42
2023-04-18T04:52:44.122Z,23.42
2023-04-18T04:55:12.038Z,23.43
2023-04-18T04:57:40.206Z,23.43
2023-04-18T05:00:10.490Z,23.40
2023-04-18T05:02:38.596Z,23.43
2023-04-18T05:05:07.114Z,23.44
2023-04-18T05:07:35.393Z,23.44
2023-04-18T05:10:05.099Z,23.43
2023-04-18T05:12:33.055Z,23.42
2023-04-18T05:15:00.987Z,23.41
2023-04-18T05:17:29.233Z,23.42
2023-04-18T05:19:57.173Z,23.42
2023-04-18T05:22:25.140Z,23.41
2023-04-18T05:24:53.011Z,23.42
2023-04-18T05:27:22.754Z,23.41
2023-04-18T05:29:51.067Z,23.41
2023-04-18T05:32:18.927Z,23.41
2023-04-18T05:34:47.278Z,23.41
2023-04-18T05:37:15.339Z,23.40
2023-04-18T05:39:43.220Z,23.39
2023-04-18T05:42:11.125Z,23.40
2023-04-18T05:44:40.420Z,23.40
2023-04-18T05:47:08.592Z,23.40
2023-04-18T05:49:36.658Z,23.40
2023-04-18T05:52:04.588Z,23.39
2023-04-18T05:54:32.429Z,23.39
2023-04-18T05:57:03.156Z,23.40
2023-04-18T05:59:32.214Z,23.41
2023-04-18T06:02:01.609Z,23.40
2023-04-18T06:04:29.785Z,23.41
2023-04-18T06:06:58.066Z,23.41
2023-04-18T06:09:25.986Z,23.41
2023-04-18T06:11:53.842Z,23.40
2023-04-18T06:14:21.763Z,23.41
2023-04-18T06:16:50.507Z,23.40
2023-04-18T06:19:19.875Z,23.40
2023-04-18T06:21:47.920Z,23.41
2023-04-18T06:24:16.138Z,23.40
2023-04-18T06:26:44.615Z,23.42
2023-04-18T06:29:13.304Z,23.42
2023-04-18T06:31:42.096Z,23.38
2023-04-18T06:34:10.518Z,23.38
2023-04-18T06:36:39.806Z,23.33
2023-04-18T06:39:07.815Z,23.40
2023-04-18T06:41:35.733Z,23.40
2023-04-18T06:44:04.697Z,23.39
2023-04-18T06:46:33.121Z,23.39
2023-04-18T06:49:01.018Z,23.39
2023-04-18T06:51:29.061Z,23.40
2023-04-18T06:53:58.414Z,23.37
2023-04-18T06:56:26.846Z,23.38
2023-04-18T06:58:54.788Z,23.38
2023-04-18T07:01:22.784Z,23.39
2023-04-18T07:03:50.799Z,23.40
2023-04-18T07:06:19.039Z,23.40
2023-04-18T07:08:46.961Z,23.40
2023-04-18T07:11:18.522Z,23.41
2023-04-18T07:13:47.405Z,23.41
2023-04-18T07:16:15.767Z,23.41
2023-04-18T07:18:43.812Z,23.41
2023-04-18T07:21:11.792Z,23.42
2023-04-18T07:23:39.960Z,23.42
2023-04-18T07:26:09.468Z,23.42
2023-04-18T07:28:38.846Z,23.42
2023-04-18T07:31:09.054Z,23.42
2023-04-18T07:33:37.019Z,23.41
2023-04-18T07:36:05.780Z,23.41
2023-04-18T07:38:35.282Z,23.42
2023-04-18T07:41:03.285Z,23.41
2023-04-18T07:43:31.325Z,23.43
2023-04-18T07:46:01.319Z,23.43
2023-04-18T07:48:29.270Z,23.43
2023-04-18T07:50:57.160Z,23.43
2023-04-18T07:53:25.002Z,23.44
2023-04-18T07:55:54.393Z,23.42
2023-04-18T07:58:22.466Z,23.42
2023-04-18T08:00:50.397Z,23.42
2023-04-18T08:03:20.072Z,23.42
2023-04-18T08:05:49.005Z,23.43
2023-04-18T08:08:17.674Z,23.43
2023-04-18T08:10:45.727Z,23.43
2023-04-18T08:13:14.178Z,23.43
2023-04-18T08:15:42.479Z,23.44
2023-04-18T08:18:10.730Z,23.44
2023-04-18T08:20:40.627Z,23.44
2023-04-18T08:23:12.123Z,23.43
2023-04-18T08:25:40.195Z,23.42
2023-04-18T08:28:08.387Z,23.43
2023-04-18T08:30:36.405Z,23.39
2023-04-18T08:33:04.615Z,23.37
2023-04-18T08:35:32.914Z,23.41
2023-04-18T08:38:02.460Z,23.41
2023-04-18T08:40:30.711Z,23.42
2023-04-18T08:42:58.654Z,23.41
2023-04-18T08:45:27.010Z,23.38
2023-04-18T08:47:57.868Z,23.41
2023-04-18T08:50:25.774Z,23.42
2023-04-18T08:52:53.834Z,23.42
2023-04-18T08:55:24.548Z,23.42
2023-04-18T08:57:54.919Z,23.42
2023-04-18T09:00:23.774Z,23.43
2023-04-18T09:02:56.625Z,23.44
2023-04-18T09:05:25.384Z,23.44
2023-04-18T09:07:54.447Z,23.43
2023-04-18T09:10:31.073Z,23.43
2023-04-18T09:12:59.256Z,23.45
2023-04-18T09:15:28.615Z,23.44
2023-04-18T09:17:57.905Z,23.44
2023-04-18T09:20:34.683Z,23.44
2023-04-18T09:23:03.822Z,23.43
2023-04-18T09:25:36.150Z,23.43
2023-04-18T09:28:04.664Z,23.43
2023-04-18T09:30:36.845Z,23.44
2023-04-18T09:33:05.596Z,23.43
2023-04-18T09:35:34.314Z,23.42
2023-04-18T09:38:02.216Z,23.42
2023-04-18T09:40:30.171Z,23.41
2023-04-18T09:43:02.197Z,23.40
2023-04-18T09:45:30.455Z,23.40
2023-04-18T09:47:58.709Z,23.40
2023-04-18T09:50:26.812Z,23.41
2023-04-18T09:52:54.684Z,23.40
2023-04-18T09:55:22.590Z,23.40
2023-04-18T09:57:50.915Z,23.40
2023-04-18T10:00:24.278Z,23.41
2023-04-18T10:02:54.350Z,23.40
2023-04-18T10:05:24.369Z,23.43
2023-04-18T10:07:52.664Z,23.43
2023-04-18T10:10:20.611Z,23.43
2023-04-18T10:12:50.697Z,23.41
2023-04-18T10:15:21.821Z,23.42
2023-04-18T10:18:03.751Z,23.43
2023-04-18T10:20:33.473Z,23.43
2023-04-18T10:23:02.059Z,23.43
2023-04-18T10:25:51.477Z,23.43
2023-04-18T10:28:20.901Z,23.43
2023-04-18T10:31:08.268Z,23.44
2023-04-18T10:33:49.661Z,23.44
2023-04-18T10:36:30.739Z,23.43
2023-04-18T10:39:03.047Z,23.44
2023-04-18T10:41:34.384Z,23.45
2023-04-18T10:44:37.148Z,23.45
2023-04-18T10:47:26.510Z,23.46
2023-04-18T10:49:56.981Z,23.37
2023-04-18T10:52:33.702Z,23.47
2023-04-18T10:55:19.400Z,23.47
2023-04-18T10:57:53.884Z,23.48
2023-04-18T11:00:28.775Z,23.48
2023-04-18T11:03:03.028Z,23.49
2023-04-18T11:05:31.306Z,23.49
2023-04-18T11:08:05.628Z,23.48
2023-04-18T11:10:35.153Z,23.47
2023-04-18T11:13:05.494Z,23.47
2023-04-18T11:15:35.471Z,23.47
2023-04-18T11:18:07.773Z,23.46
2023-04-18T11:20:43.321Z,23.47
2023-04-18T11:23:17.442Z,23.46
2023-04-18T11:25:45.937Z,23.46
2023-04-18T11:28:22.194Z,23.44
2023-04-18T11:30:50.101Z,23.45
2023-04-18T11:33:19.520Z,23.45
2023-04-18T11:35:47.629Z,23.44
2023-04-18T11:38:16.361Z,23.45
2023-04-18T11:40:48.681Z,23.45
2023-04-18T11:43:21.066Z,23.42
2023-04-18T11:45:53.460Z,23.46
2023-04-18T11:48:23.316Z,23.46
2023-04-18T11:50:51.377Z,23.45
2023-04-18T11:53:33.230Z,23.46
2023-04-18T11:56:01.108Z,23.45
2023-04-18T11:58:33.009Z,23.45
2023-04-18T12:01:01.063Z,23.44
2023-04-18T12:03:30.558Z,23.46
2023-04-18T12:06:01.721Z,23.48
2023-04-18T12:08:30.107Z,23.48
2023-04-18T12:10:57.990Z,23.46
2023-04-18T12:13:26.743Z,23.46
2023-04-18T12:15:54.911Z,23.47
2023-04-18T12:18:24.589Z,23.46
2023-04-18T12:20:54.353Z,23.47
2023-04-18T12:23:32.654Z,23.47
2023-04-18T12:26:01.741Z,23.48
2023-04-18T12:28:30.026Z,23.49
2023-04-18T12:30:58.161Z,23.48
2023-04-18T12:33:26.282Z,23.49
2023-04-18T12:35:56.098Z,23.49
2023-04-18T12:38:24.539Z,23.48
2023-04-18T12:40:52.764Z,23.47
2023-04-18T12:43:20.865Z,23.49
2023-04-18T12:45:48.784Z,23.49
2023-04-18T12:48:16.957Z,23.48
2023-04-18T12:50:44.861Z,23.36
2023-04-18T12:53:14.109Z,23.44
2023-04-18T12:55:42.009Z,23.45
2023-04-18T12:58:10.218Z,23.49
2023-04-18T13:00:38.226Z,23.49
2023-04-18T13:03:06.434Z,23.49
2023-04-18T13:05:34.712Z,23.50
2023-04-18T13:10:35.166Z,23.49
2023-04-18T13:13:03.090Z,23.50
2023-04-18T13:15:31.276Z,23.50
2023-04-18T13:18:04.439Z,23.39
2023-04-18T13:20:32.676Z,23.51
2023-04-18T13:23:00.559Z,23.52
2023-04-18T13:25:28.495Z,23.50
2023-04-18T13:27:58.489Z,23.52
2023-04-18T13:30:26.599Z,23.52
2023-04-18T13:32:55.051Z,23.51
2023-04-18T13:35:23.123Z,23.52
2023-04-18T13:37:51.315Z,23.52
2023-04-18T13:40:19.250Z,23.52
2023-04-18T13:42:47.122Z,23.51
2023-04-18T13:45:16.498Z,23.53
2023-04-18T13:47:44.410Z,23.52
2023-04-18T13:50:12.643Z,23.52
2023-04-18T13:52:40.527Z,23.52
2023-04-18T13:55:10.567Z,23.53
2023-04-18T13:57:38.481Z,23.54
2023-04-18T14:00:09.333Z,23.52
2023-04-18T14:02:38.750Z,23.53
2023-04-18T14:05:07.830Z,23.54
2023-04-18T14:07:37.229Z,23.53
2023-04-18T14:10:05.837Z,23.51
2023-04-18T14:12:34.123Z,23.54
2023-04-18T14:15:02.048Z,23.52
2023-04-18T14:17:31.097Z,23.53
2023-04-18T14:20:00.780Z,23.53
2023-04-18T14:22:28.696Z,23.54
2023-04-18T14:24:56.691Z,23.53
2023-04-18T14:27:26.075Z,23.54
2023-04-18T14:29:54.413Z,23.54
2023-04-18T14:32:22.349Z,23.55
2023-04-18T14:34:50.448Z,23.53
2023-04-18T14:37:19.732Z,23.54
2023-04-18T14:39:48.616Z,23.54
2023-04-18T14:42:17.125Z,23.53
2023-04-18T14:44:45.087Z,23.50
2023-04-18T14:47:12.999Z,23.54
2023-04-18T14:49:41.270Z,23.53
2023-04-18T14:52:09.172Z,23.54
2023-04-18T14:54:38.467Z,23.54
2023-04-18T14:57:08.255Z,23.54
2023-04-18T14:59:36.283Z,23.54
2023-04-18T15:02:04.379Z,23.54
2023-04-18T15:04:32.667Z,23.51
2023-04-18T15:07:00.799Z,23.54
2023-04-18T15:09:29.058Z,23.54
2023-04-18T15:12:00.173Z,23.54
2023-04-18T15:14:28.100Z,23.54
2023-04-18T15:16:56.202Z,23.54
2023-04-18T15:19:24.490Z,23.54
2023-04-18T15:21:52.671Z,23.54
2023-04-18T15:24:20.600Z,23.55
2023-04-18T15:26:48.631Z,23.54
2023-04-18T15:29:18.313Z,23.55
2023-04-18T15:31:46.755Z,23.55
2023-04-18T15:34:15.081Z,23.55
2023-04-18T15:36:43.285Z,23.52
2023-04-18T15:39:11.459Z,23.55
2023-04-18T15:41:39.835Z,23.55
2023-04-18T15:44:08.222Z,23.55
2023-04-18T15:46:37.678Z,23.54
2023-04-18T15:49:06.513Z,23.56
2023-04-18T15:51:34.489Z,23.57
2023-04-18T15:54:02.386Z,23.52
2023-04-18T15:56:32.524Z,23.55
2023-04-18T15:59:02.500Z,23.55
2023-04-18T16:01:30.559Z,23.57
2023-04-18T16:03:59.960Z,23.58
2023-04-18T16:06:28.063Z,23.57
2023-04-18T16:08:56.421Z,23.57
2023-04-18T16:11:26.135Z,23.54
2023-04-18T16:13:54.103Z,23.58
2023-04-18T16:16:22.030Z,23.52
2023-04-18T16:18:50.090Z,23.55
2023-04-18T16:21:19.384Z,23.58
2023-04-18T16:23:47.305Z,23.59
2023-04-18T16:26:15.262Z,23.57
2023-04-18T16:28:43.542Z,23.56
2023-04-18T16:31:11.457Z,23.56
2023-04-18T16:33:39.444Z,23.55
2023-04-18T16:36:07.633Z,23.56
2023-04-18T16:38:37.405Z,23.54
2023-04-18T16:41:05.839Z,23.52
2023-04-18T16:43:36.480Z,23.58
2023-04-18T16:46:04.577Z,23.58
2023-04-18T16:48:32.949Z,23.61
2023-04-18T16:51:01.094Z,23.61
2023-04-18T16:53:29.123Z,23.66
2023-04-18T16:55:59.127Z,23.67
2023-04-18T16:58:27.527Z,23.70
2023-04-18T17:00:55.426Z,23.72
2023-04-18T17:03:23.532Z,23.75
2023-04-18T17:05:51.928Z,23.74
2023-04-18T17:08:20.246Z,23.77
2023-04-18T17:10:48.165Z,23.80
2023-04-18T17:13:17.532Z,23.81
2023-04-18T17:15:45.578Z,23.81
2023-04-18T17:18:13.804Z,23.67
2023-04-18T17:20:41.770Z,23.81
2023-04-18T17:23:09.692Z,23.82
2023-04-18T17:25:37.716Z,23.82
2023-04-18T17:28:06.287Z,23.77
2023-04-18T17:30:35.572Z,23.83
2023-04-18T17:33:03.517Z,23.84
2023-04-18T17:35:31.541Z,23.85
2023-04-18T17:37:59.871Z,23.84
2023-04-18T17:40:27.999Z,23.83
2023-04-18T17:42:56.002Z,23.83
2023-04-18T17:45:24.077Z,23.84
2023-04-18T17:47:54.681Z,23.82
2023-04-18T17:50:22.711Z,23.71
2023-04-18T17:52:50.709Z,23.81
2023-04-18T17:55:18.734Z,23.82
2023-04-18T17:57:46.801Z,23.79
2023-04-18T18:00:15.741Z,23.81
2023-04-18T18:02:43.878Z,23.79
2023-04-18T18:05:14.649Z,23.60
2023-04-18T18:07:48.633Z,23.83
2023-04-18T18:10:20.024Z,23.67
2023-04-18T18:12:48.210Z,23.89
2023-04-18T18:15:16.383Z,23.91
2023-04-18T18:17:44.424Z,23.91
2023-04-18T18:20:14.592Z,23.90
2023-04-18T18:22:42.631Z,23.87
2023-04-18T18:25:13.796Z,23.85
2023-04-18T18:27:41.829Z,23.86
2023-04-18T18:30:10.580Z,23.85
2023-04-18T18:32:38.532Z,23.83
2023-04-18T18:35:07.336Z,23.83
2023-04-18T18:37:36.625Z,23.82
2023-04-18T18:40:08.267Z,23.78
2023-04-18T18:42:36.226Z,23.80
2023-04-18T18:45:04.745Z,23.79
2023-04-18T18:47:34.192Z,23.82
2023-04-18T18:50:02.920Z,23.82
2023-04-18T18:52:31.036Z,23.83
2023-04-18T18:55:01.108Z,23.78
2023-04-18T18:57:29.005Z,23.80
2023-04-18T18:59:57.217Z,23.80
2023-04-18T19:02:25.580Z,23.78
2023-04-18T19:04:53.778Z,23.79
2023-04-18T19:07:21.805Z,23.78
2023-04-18T19:09:50.211Z,23.77
2023-04-18T19:12:19.567Z,23.77
2023-04-18T19:14:47.524Z,23.77
2023-04-18T19:17:17.646Z,23.75
2023-04-18T19:19:46.216Z,23.76
2023-04-18T19:22:14.239Z,23.76
2023-04-18T19:24:42.494Z,23.77
2023-04-18T19:27:10.710Z,23.78
2023-04-18T19:29:40.599Z,23.78
2023-04-18T19:32:08.523Z,23.80
2023-04-18T19:34:36.474Z,23.81
2023-04-18T19:37:04.438Z,23.81
2023-04-18T19:39:32.792Z,23.82
2023-04-18T19:42:01.918Z,23.83
2023-04-18T19:44:31.249Z,23.83
2023-04-18T19:47:01.150Z,23.83
2023-04-18T19:49:29.349Z,23.84
2023-04-18T19:51:57.579Z,23.84
2023-04-18T19:54:25.733Z,23.85
2023-04-18T19:56:53.618Z,23.86
2023-04-18T19:59:21.920Z,23.86
2023-04-18T20:01:49.886Z,23.86
2023-04-18T20:04:19.617Z,23.86
2023-04-18T20:06:47.582Z,23.87
2023-04-18T20:09:17.516Z,23.87
2023-04-18T20:11:46.508Z,23.88
2023-04-18T20:14:14.426Z,23.88
2023-04-18T20:16:42.954Z,23.88
2023-04-18T20:19:12.926Z,23.89
2023-04-18T20:21:42.401Z,23.87
2023-04-18T20:24:10.787Z,23.86
2023-04-18T20:26:38.703Z,23.84
2023-04-18T20:29:06.884Z,23.85
2023-04-18T20:31:35.178Z,23.85
2023-04-18T20:34:03.207Z,23.84
2023-04-18T20:36:31.141Z,23.85
2023-04-18T20:39:02.332Z,23.84
2023-04-18T20:41:32.031Z,23.84
2023-04-18T20:44:00.072Z,23.83
2023-04-18T20:46:28.044Z,23.82
2023-04-18T20:48:56.298Z,23.82
2023-04-18T20:51:24.212Z,23.81
2023-04-18T20:53:52.173Z,23.81
2023-04-18T20:56:21.431Z,23.81
2023-04-18T20:58:49.629Z,23.81
2023-04-18T21:01:17.590Z,23.81
2023-04-18T21:03:45.734Z,23.80
2023-04-18T21:06:13.816Z,23.80
2023-04-18T21:08:42.043Z,23.80
2023-04-18T21:11:09.886Z,23.79
2023-04-18T21:13:39.184Z,23.75
2023-04-18T21:16:07.931Z,23.77
2023-04-18T21:18:36.331Z,23.78
2023-04-18T21:21:04.350Z,23.77
2023-04-18T21:23:32.267Z,23.77
2023-04-18T21:26:00.219Z,23.77
2023-04-18T21:28:28.427Z,23.76
2023-04-18T21:30:57.807Z,23.77
2023-04-18T21:33:26.214Z,23.76
2023-04-18T21:35:54.170Z,23.60
2023-04-18T21:38:25.542Z,23.68
2023-04-18T21:40:53.446Z,23.76
2023-04-18T21:43:21.351Z,23.75
2023-04-18T21:45:49.700Z,23.74
2023-04-18T21:48:19.324Z,23.76
2023-04-18T21:50:47.268Z,23.74
2023-04-18T21:53:15.198Z,23.73
2023-04-18T21:55:43.076Z,23.73
2023-04-18T21:58:11.256Z,23.72
2023-04-18T22:00:39.379Z,23.72
2023-04-18T22:03:08.832Z,23.73
2023-04-18T22:05:39.000Z,23.69
2023-04-18T22:08:07.404Z,23.72
2023-04-18T22:10:35.778Z,23.72
2023-04-18T22:13:04.396Z,23.72
2023-04-18T22:15:32.897Z,23.71
2023-04-18T22:18:01.188Z,23.71
2023-04-18T22:20:29.499Z,23.71
2023-04-18T22:22:58.753Z,23.71
2023-04-18T22:25:26.652Z,23.70
2023-04-18T22:27:54.875Z,23.69
2023-04-18T22:30:22.795Z,23.70
2023-04-18T22:32:50.759Z,23.69
2023-04-18T22:35:18.843Z,23.69
2023-04-18T22:37:46.715Z,23.67
2023-04-18T22:40:16.732Z,23.68
2023-04-18T22:42:44.647Z,23.64
2023-04-18T22:45:13.658Z,23.68
2023-04-18T22:47:41.655Z,23.67
2023-04-18T22:50:10.573Z,23.67
2023-04-18T22:52:38.455Z,23.67
2023-04-18T22:55:07.108Z,23.67
2023-04-18T22:57:36.450Z,23.66
2023-04-18T23:00:10.949Z,23.67
2023-04-18T23:02:39.007Z,23.66
2023-04-18T23:05:08.163Z,23.66
2023-04-18T23:07:36.076Z,23.63
2023-04-18T23:10:06.382Z,23.65
2023-04-18T23:12:34.336Z,23.63
2023-04-18T23:15:03.760Z,23.64
2023-04-18T23:17:31.726Z,23.63
2023-04-18T23:19:59.962Z,23.63
2023-04-18T23:22:27.974Z,23.63
2023-04-18T23:24:56.254Z,23.62
2023-04-18T23:27:24.121Z,23.62
2023-04-18T23:29:52.289Z,23.62
2023-04-18T23:32:22.176Z,23.62
2023-04-18T23:34:50.074Z,23.62
2023-04-18T23:37:18.016Z,23.39
2023-04-18T23:39:46.219Z,23.60
2023-04-18T23:42:14.189Z,23.61
2023-04-18T23:44:42.056Z,23.61
2023-04-18T23:47:10.117Z,23.62
2023-04-18T23:49:39.811Z,23.62
2023-04-18T23:52:08.177Z,23.62
2023-04-18T23:54:36.384Z,23.61
2023-04-18T23:57:04.319Z,23.61
2023-04-18T23:59:32.594Z,23.62
